Wetterstation Vordersexau
Wetterdaten: Woche 18.12.17 - 24.12.17 (KW51)
Datum Zeit Temp. A. Feuchte A. Luftdruck Regen Wind Richtung Taupunkt Windchill Windben
18.12.2017 00:00 0,9 C 86 % 1023,6 hPa 0,0 l/m 0,0 km/h S -1,2 C 0,9 C 0,0 km/h
18.12.2017 01:00 1,6 C 84 % 1022,7 hPa 0,0 l/m 7,1 km/h S -0,8 C 0,9 C 4,0 km/h
18.12.2017 02:00 1,9 C 82 % 1022,6 hPa 0,0 l/m 1,9 km/h S-SW -0,8 C 1,9 C 1,1 km/h
18.12.2017 03:00 2,2 C 78 % 1021,3 hPa 0,0 l/m 18,1 km/h S -1,2 C -5,9 C 10,1 km/h
18.12.2017 04:00 0,9 C 84 % 1020,9 hPa 0,0 l/m 19,4 km/h S-SW -1,5 C -8,2 C 10,8 km/h
18.12.2017 05:00 0,3 C 85 % 1019,4 hPa 0,0 l/m 0,0 km/h S -1,9 C 0,3 C 0,0 km/h
18.12.2017 06:00 0,2 C 85 % 1018,6 hPa 0,0 l/m 0,0 km/h S -2,0 C 0,2 C 0,0 km/h
18.12.2017 07:00 0,1 C 84 % 1017,7 hPa 0,0 l/m 0,0 km/h S -2,3 C 0,1 C 0,0 km/h
18.12.2017 08:00 0,3 C 84 % 1017,5 hPa 0,0 l/m 0,0 km/h S -2,1 C 0,3 C 0,0 km/h
18.12.2017 09:00 0,7 C 83 % 1017,9 hPa 0,0 l/m 0,0 km/h S -1,8 C 0,7 C 0,0 km/h
18.12.2017 10:00 1,1 C 83 % 1018,6 hPa 0,0 l/m 0,0 km/h W -1,5 C 1,1 C 0,0 km/h
18.12.2017 11:00 1,8 C 83 % 1019,0 hPa 0,0 l/m 0,0 km/h W -0,8 C 1,8 C 0,0 km/h
18.12.2017 12:00 2,4 C 83 % 1019,0 hPa 0,0 l/m 0,0 km/h W -0,2 C 2,4 C 0,0 km/h
18.12.2017 13:00 2,6 C 84 % 1019,7 hPa 0,5 l/m 0,0 km/h W 0,2 C 2,6 C 0,0 km/h
18.12.2017 14:00 2,7 C 85 % 1020,3 hPa 0,5 l/m 0,0 km/h W 0,4 C 2,7 C 0,0 km/h
18.12.2017 15:00 2,3 C 85 % 1020,9 hPa 0,5 l/m 0,0 km/h W 0,0 C 2,3 C 0,0 km/h
18.12.2017 16:00 1,5 C 84 % 1021,8 hPa 0,0 l/m 0,0 km/h W -0,9 C 1,5 C 0,0 km/h
18.12.2017 17:00 1,3 C 84 % 1022,8 hPa 0,0 l/m 0,0 km/h W -1,1 C 1,3 C 0,0 km/h
18.12.2017 18:00 1,3 C 83 % 1023,1 hPa 0,0 l/m 0,0 km/h N -1,3 C 1,3 C 0,0 km/h
18.12.2017 19:00 1,3 C 83 % 1024,1 hPa 0,0 l/m 0,0 km/h N -1,3 C 1,3 C 0,0 km/h
18.12.2017 20:00 1,3 C 83 % 1024,9 hPa 0,5 l/m 0,0 km/h N -1,3 C 1,3 C 0,0 km/h
18.12.2017 21:00 1,4 C 82 % 1025,3 hPa 0,0 l/m 0,0 km/h N -1,3 C 1,4 C 0,0 km/h
18.12.2017 22:00 1,5 C 82 % 1025,8 hPa 0,0 l/m 0,0 km/h N -1,2 C 1,5 C 0,0 km/h
18.12.2017 23:00 1,6 C 81 % 1026,5 hPa 0,0 l/m 0,0 km/h N -1,3 C 1,6 C 0,0 km/h
19.12.2017 00:00 1,4 C 81 % 1026,3 hPa 0,0 l/m 0,0 km/h N -1,5 C 1,4 C 0,0 km/h
19.12.2017 01:00 1,6 C 80 % 1026,9 hPa 0,0 l/m 0,0 km/h N -1,5 C 1,6 C 0,0 km/h
19.12.2017 02:00 1,6 C 80 % 1027,1 hPa 0,0 l/m 0,0 km/h N -1,5 C 1,6 C 0,0 km/h
19.12.2017 03:00 1,6 C 80 % 1027,6 hPa 0,0 l/m 0,0 km/h N -1,5 C 1,6 C 0,0 km/h
19.12.2017 04:00 1,6 C 80 % 1028,0 hPa 0,0 l/m 0,0 km/h N -1,5 C 1,6 C 0,0 km/h
19.12.2017 05:00 1,7 C 80 % 1028,5 hPa 0,0 l/m 0,0 km/h N -1,4 C 1,7 C 0,0 km/h
19.12.2017 06:00 1,7 C 79 % 1029,1 hPa 0,0 l/m 0,0 km/h N -1,5 C 1,7 C 0,0 km/h
19.12.2017 07:00 1,8 C 79 % 1029,7 hPa 0,0 l/m 0,0 km/h N -1,4 C 1,8 C 0,0 km/h
19.12.2017 08:00 1,9 C 79 % 1030,3 hPa 0,0 l/m 0,0 km/h N -1,3 C 1,9 C 0,0 km/h
19.12.2017 09:00 2,1 C 79 % 1030,9 hPa 0,0 l/m 0,0 km/h N -1,2 C 2,1 C 0,0 km/h
19.12.2017 10:00 2,7 C 78 % 1031,5 hPa 0,0 l/m 0,0 km/h N -0,7 C 2,7 C 0,0 km/h
19.12.2017 11:00 3,1 C 78 % 1031,4 hPa 0,0 l/m 0,0 km/h N -0,4 C 3,1 C 0,0 km/h
19.12.2017 12:00 3,3 C 79 % 1031,4 hPa 0,0 l/m 0,0 km/h N 0,0 C 3,3 C 0,0 km/h
19.12.2017 13:00 3,3 C 80 % 1031,4 hPa 0,0 l/m 0,0 km/h N 0,2 C 3,3 C 0,0 km/h
19.12.2017 14:00 3,2 C 81 % 1031,4 hPa 0,0 l/m 0,0 km/h N 0,3 C 3,2 C 0,0 km/h
19.12.2017 15:00 3,3 C 81 % 1031,5 hPa 0,0 l/m 0,0 km/h N-NO 0,4 C 3,3 C 0,0 km/h
19.12.2017 16:00 2,6 C 82 % 1031,8 hPa 0,0 l/m 0,0 km/h N-NO -0,2 C 2,6 C 0,0 km/h
19.12.2017 17:00 1,9 C 82 % 1031,9 hPa 0,0 l/m 0,0 km/h N-NO -0,8 C 1,9 C 0,0 km/h
19.12.2017 18:00 1,6 C 82 % 1031,9 hPa 0,0 l/m 0,0 km/h N-NO -1,1 C 1,6 C 0,0 km/h
19.12.2017 19:00 1,6 C 81 % 1032,4 hPa 0,0 l/m 0,0 km/h N-NO -1,3 C 1,6 C 0,0 km/h
19.12.2017 20:00 1,5 C 81 % 1032,7 hPa 0,0 l/m 0,0 km/h N-NO -1,4 C 1,5 C 0,0 km/h
19.12.2017 21:00 1,5 C 80 % 1032,7 hPa 0,0 l/m 0,0 km/h N-NO -1,6 C 1,5 C 0,0 km/h
19.12.2017 22:00 1,6 C 80 % 1032,7 hPa 0,0 l/m 0,0 km/h N-NO -1,5 C 1,6 C 0,0 km/h
19.12.2017 23:00 1,7 C 80 % 1032,4 hPa 0,0 l/m 0,0 km/h N-NO -1,4 C 1,7 C 0,0 km/h
20.12.2017 00:00 1,6 C 80 % 1032,4 hPa 0,0 l/m 0,0 km/h N-NO -1,5 C 1,6 C 0,0 km/h
20.12.2017 01:00 1,5 C 79 % 1032,2 hPa 0,5 l/m 0,0 km/h N-NO -1,7 C 1,5 C 0,0 km/h
20.12.2017 02:00 1,4 C 79 % 1031,7 hPa 0,0 l/m 0,0 km/h N-NO -1,8 C 1,4 C 0,0 km/h
20.12.2017 03:00 1,4 C 79 % 1031,6 hPa 0,0 l/m 0,0 km/h N-NO -1,8 C 1,4 C 0,0 km/h
20.12.2017 04:00 1,5 C 79 % 1031,4 hPa 0,0 l/m 0,0 km/h N-NO -1,7 C 1,5 C 0,0 km/h
20.12.2017 05:00 1,5 C 79 % 1031,0 hPa 0,0 l/m 0,0 km/h N-NO -1,7 C 1,5 C 0,0 km/h
20.12.2017 06:00 1,6 C 78 % 1030,7 hPa 0,0 l/m 0,0 km/h N-NO -1,8 C 1,6 C 0,0 km/h
20.12.2017 07:00 1,8 C 77 % 1031,3 hPa 0,0 l/m 0,0 km/h N-NO -1,8 C 1,8 C 0,0 km/h
20.12.2017 08:00 2,1 C 77 % 1031,2 hPa 0,5 l/m 0,0 km/h N-NO -1,5 C 2,1 C 0,0 km/h
20.12.2017 09:00 2,6 C 76 % 1031,8 hPa 0,0 l/m 0,0 km/h N-NO -1,2 C 2,6 C 0,0 km/h
20.12.2017 10:00 3,4 C 76 % 1032,0 hPa 0,0 l/m 0,0 km/h N-NO -0,4 C 3,4 C 0,0 km/h
20.12.2017 11:00 4,1 C 76 % 1031,6 hPa 0,0 l/m 0,0 km/h N 0,3 C 4,1 C 0,0 km/h
20.12.2017 12:00 4,5 C 78 % 1031,2 hPa 0,0 l/m 0,0 km/h N 1,0 C 4,5 C 0,0 km/h
20.12.2017 13:00 4,5 C 79 % 1030,7 hPa 0,0 l/m 0,0 km/h O-SO 1,2 C 4,5 C 0,0 km/h
20.12.2017 14:00 4,4 C 81 % 1031,2 hPa 0,0 l/m 0,0 km/h O-SO 1,4 C 4,4 C 0,0 km/h
20.12.2017 15:00 4,7 C 83 % 1031,2 hPa 0,0 l/m 0,0 km/h O-SO 2,1 C 4,7 C 0,0 km/h
20.12.2017 16:00 3,9 C 83 % 1031,2 hPa 0,0 l/m 0,0 km/h O-SO 1,3 C 3,9 C 0,0 km/h
20.12.2017 17:00 3,4 C 82 % 1031,7 hPa 0,0 l/m 0,0 km/h O-SO 0,6 C 3,4 C 0,0 km/h
20.12.2017 18:00 3,2 C 82 % 1032,4 hPa 0,0 l/m 0,0 km/h O-SO 0,4 C 3,2 C 0,0 km/h
20.12.2017 19:00 3,3 C 81 % 1032,6 hPa 0,0 l/m 0,0 km/h O-SO 0,4 C 3,3 C 0,0 km/h
20.12.2017 20:00 3,3 C 80 % 1032,5 hPa 0,0 l/m 0,0 km/h O-SO 0,2 C 3,3 C 0,0 km/h
20.12.2017 21:00 3,3 C 80 % 1032,8 hPa 0,0 l/m 0,0 km/h O-SO 0,2 C 3,3 C 0,0 km/h
20.12.2017 22:00 3,3 C 79 % 1032,9 hPa 0,0 l/m 0,0 km/h O-SO 0,0 C 3,3 C 0,0 km/h
20.12.2017 23:00 3,2 C 79 % 1033,0 hPa 0,0 l/m 0,0 km/h O-SO -0,1 C 3,2 C 0,0 km/h
21.12.2017 00:00 3,2 C 79 % 1033,1 hPa 0,0 l/m 0,0 km/h O-NO -0,1 C 3,2 C 0,0 km/h
21.12.2017 01:00 3,3 C 79 % 1033,2 hPa 0,0 l/m 0,0 km/h SO 0,0 C 3,3 C 0,0 km/h
21.12.2017 02:00 3,3 C 79 % 1033,0 hPa 0,0 l/m 0,0 km/h SO 0,0 C 3,3 C 0,0 km/h
21.12.2017 03:00 3,3 C 79 % 1033,7 hPa 0,0 l/m 0,0 km/h O-SO 0,0 C 3,3 C 0,0 km/h
21.12.2017 04:00 3,3 C 79 % 1033,0 hPa 0,0 l/m 0,0 km/h O-SO 0,0 C 3,3 C 0,0 km/h
21.12.2017 05:00 2,9 C 78 % 1033,1 hPa 0,0 l/m 0,0 km/h O-SO -0,5 C 2,9 C 0,0 km/h
21.12.2017 06:00 3,2 C 78 % 1033,8 hPa 0,0 l/m 0,0 km/h O-SO -0,3 C 3,2 C 0,0 km/h
21.12.2017 07:00 3,2 C 78 % 1033,9 hPa 0,0 l/m 0,0 km/h SO -0,3 C 3,2 C 0,0 km/h
21.12.2017 08:00 3,6 C 77 % 1033,6 hPa 0,0 l/m 0,0 km/h O-SO -0,0 C 3,6 C 0,0 km/h
21.12.2017 09:00 5,3 C 78 % 1034,2 hPa 0,0 l/m 0,0 km/h O-SO 1,8 C 5,3 C 0,0 km/h
21.12.2017 10:00 5,6 C 82 % 1034,8 hPa 0,0 l/m 0,0 km/h O-SO 2,8 C 5,6 C 0,0 km/h
21.12.2017 11:00 6,2 C 84 % 1034,2 hPa 0,0 l/m 0,0 km/h N 3,7 C 6,2 C 0,0 km/h
21.12.2017 12:00 6,6 C 85 % 1033,5 hPa 0,0 l/m 0,0 km/h N 4,3 C 6,6 C 0,0 km/h
21.12.2017 13:00 6,3 C 86 % 1033,4 hPa 0,0 l/m 0,0 km/h SO 4,1 C 6,3 C 0,0 km/h
21.12.2017 14:00 5,8 C 85 % 1032,8 hPa 0,0 l/m 0,0 km/h SO 3,5 C 5,8 C 0,0 km/h
21.12.2017 15:00 5,9 C 85 % 1033,4 hPa 0,0 l/m 0,0 km/h SO 3,6 C 5,9 C 0,0 km/h
21.12.2017 16:00 5,5 C 85 % 1033,1 hPa 0,0 l/m 0,0 km/h O 3,2 C 5,5 C 0,0 km/h
21.12.2017 17:00 5,2 C 84 % 1033,8 hPa 0,0 l/m 0,0 km/h O 2,7 C 5,2 C 0,0 km/h
21.12.2017 18:00 5,0 C 83 % 1034,1 hPa 0,0 l/m 0,0 km/h O-SO 2,4 C 5,0 C 0,0 km/h
21.12.2017 19:00 5,1 C 82 % 1034,6 hPa 0,5 l/m 0,0 km/h O-SO 2,3 C 5,1 C 0,0 km/h
21.12.2017 20:00 4,9 C 80 % 1034,6 hPa 0,0 l/m 0,0 km/h SO 1,7 C 4,9 C 0,0 km/h
21.12.2017 21:00 4,9 C 78 % 1034,6 hPa 0,0 l/m 0,0 km/h SO 1,4 C 4,9 C 0,0 km/h
21.12.2017 22:00 4,9 C 77 % 1034,5 hPa 0,0 l/m 0,0 km/h S-SO 1,2 C 4,9 C 0,0 km/h
21.12.2017 23:00 5,0 C 76 % 1034,2 hPa 0,0 l/m 5,2 km/h SO 1,1 C 5,0 C 2,9 km/h
22.12.2017 00:00 5,0 C 75 % 1033,7 hPa 0,0 l/m 0,0 km/h SO 0,9 C 5,0 C 0,0 km/h
22.12.2017 01:00 4,9 C 75 % 1033,0 hPa 0,0 l/m 0,0 km/h SO 0,8 C 4,9 C 0,0 km/h
22.12.2017 02:00 4,9 C 74 % 1032,7 hPa 0,0 l/m 0,0 km/h SO 0,7 C 4,9 C 0,0 km/h
22.12.2017 03:00 4,9 C 74 % 1032,3 hPa 0,0 l/m 0,0 km/h O-SO 0,7 C 4,9 C 0,0 km/h
22.12.2017 04:00 4,9 C 73 % 1031,9 hPa 0,0 l/m 0,0 km/h O-SO 0,5 C 4,9 C 0,0 km/h
22.12.2017 05:00 4,9 C 73 % 1031,8 hPa 0,0 l/m 0,0 km/h O-SO 0,5 C 4,9 C 0,0 km/h
22.12.2017 06:00 5,1 C 72 % 1031,6 hPa 0,0 l/m 0,0 km/h O-SO 0,5 C 5,1 C 0,0 km/h
22.12.2017 07:00 5,3 C 72 % 1031,8 hPa 0,0 l/m 0,0 km/h SO 0,7 C 5,3 C 0,0 km/h
22.12.2017 08:00 5,4 C 71 % 1032,0 hPa 0,5 l/m 0,0 km/h O-SO 0,6 C 5,4 C 0,0 km/h
22.12.2017 09:00 5,9 C 70 % 1032,0 hPa 0,0 l/m 0,0 km/h O-SO 0,9 C 5,9 C 0,0 km/h
22.12.2017 10:00 6,2 C 69 % 1032,3 hPa 0,5 l/m 0,0 km/h O-SO 0,9 C 6,2 C 0,0 km/h
22.12.2017 11:00 6,9 C 68 % 1032,0 hPa 0,0 l/m 0,0 km/h O-SO 1,4 C 6,9 C 0,0 km/h
22.12.2017 12:00 7,5 C 68 % 1031,5 hPa 0,0 l/m 0,0 km/h O-SO 2,0 C 7,5 C 0,0 km/h
22.12.2017 13:00 7,5 C 68 % 1031,5 hPa 0,0 l/m 0,0 km/h O-SO 2,0 C 7,5 C 0,0 km/h
22.12.2017 14:00 7,3 C 68 % 1031,4 hPa 0,0 l/m 0,0 km/h O-SO 1,8 C 7,3 C 0,0 km/h
22.12.2017 15:00 7,3 C 68 % 1031,8 hPa 0,0 l/m 0,0 km/h O-SO 1,8 C 7,3 C 0,0 km/h
22.12.2017 16:00 7,2 C 68 % 1031,8 hPa 0,0 l/m 0,0 km/h O-SO 1,7 C 7,2 C 0,0 km/h
22.12.2017 17:00 7,0 C 68 % 1031,9 hPa 0,0 l/m 0,0 km/h O-SO 1,5 C 7,0 C 0,0 km/h
22.12.2017 18:00 6,8 C 68 % 1032,5 hPa 0,0 l/m 0,0 km/h O-SO 1,3 C 6,8 C 0,0 km/h
22.12.2017 19:00 6,6 C 68 % 1033,2 hPa 0,0 l/m 0,0 km/h O-SO 1,1 C 6,6 C 0,0 km/h
22.12.2017 20:00 6,3 C 68 % 1033,1 hPa 0,0 l/m 0,0 km/h SO 0,8 C 6,3 C 0,0 km/h
22.12.2017 21:00 6,4 C 68 % 1033,2 hPa 0,0 l/m 0,0 km/h O-SO 0,9 C 6,4 C 0,0 km/h
22.12.2017 22:00 6,3 C 68 % 1033,5 hPa 0,0 l/m 0,0 km/h O-SO 0,8 C 6,3 C 0,0 km/h
22.12.2017 23:00 6,2 C 67 % 1033,7 hPa 0,0 l/m 0,0 km/h O-SO 0,5 C 6,2 C 0,0 km/h
23.12.2017 00:00 6,1 C 67 % 1034,0 hPa 0,0 l/m 0,0 km/h O-SO 0,4 C 6,1 C 0,0 km/h
23.12.2017 01:00 6,1 C 67 % 1033,8 hPa 0,0 l/m 0,0 km/h O-SO 0,4 C 6,1 C 0,0 km/h
23.12.2017 02:00 5,6 C 68 % 1033,8 hPa 0,0 l/m 0,0 km/h O-SO 0,2 C 5,6 C 0,0 km/h
23.12.2017 03:00 5,6 C 68 % 1033,3 hPa 0,0 l/m 0,0 km/h O-SO 0,2 C 5,6 C 0,0 km/h
23.12.2017 04:00 5,4 C 68 % 1033,2 hPa 0,0 l/m 0,0 km/h O-SO -0,0 C 5,4 C 0,0 km/h
23.12.2017 05:00 5,6 C 68 % 1033,2 hPa 0,0 l/m 0,0 km/h O-SO 0,2 C 5,6 C 0,0 km/h
23.12.2017 06:00 5,6 C 68 % 1033,4 hPa 0,0 l/m 0,0 km/h O-SO 0,2 C 5,6 C 0,0 km/h
23.12.2017 07:00 5,6 C 68 % 1033,4 hPa 0,0 l/m 0,0 km/h O-SO 0,2 C 5,6 C 0,0 km/h
23.12.2017 08:00 5,8 C 68 % 1033,4 hPa 0,0 l/m 0,0 km/h O-SO 0,4 C 5,8 C 0,0 km/h
23.12.2017 09:00 6,6 C 67 % 1033,4 hPa 0,0 l/m 0,0 km/h O-SO 0,9 C 6,6 C 0,0 km/h
23.12.2017 10:00 7,9 C 67 % 1034,0 hPa 0,0 l/m 0,0 km/h O-SO 2,2 C 7,9 C 0,0 km/h
23.12.2017 11:00 8,6 C 70 % 1033,9 hPa 0,0 l/m 0,0 km/h SW 3,4 C 8,6 C 0,0 km/h
23.12.2017 12:00 9,3 C 79 % 1033,3 hPa 0,0 l/m 2,6 km/h W-SW 5,8 C 9,3 C 1,4 km/h
23.12.2017 13:00 9,0 C 86 % 1033,0 hPa 0,0 l/m 0,0 km/h W-SW 6,8 C 9,0 C 0,0 km/h
23.12.2017 14:00 8,9 C 85 % 1033,0 hPa 0,0 l/m 0,0 km/h S-SW 6,5 C 8,9 C 0,0 km/h
23.12.2017 15:00 8,6 C 85 % 1032,7 hPa 0,0 l/m 0,0 km/h W 6,2 C 8,6 C 0,0 km/h
23.12.2017 16:00 7,8 C 86 % 1032,7 hPa 0,0 l/m 0,0 km/h W 5,6 C 7,8 C 0,0 km/h
23.12.2017 17:00 7,1 C 86 % 1032,5 hPa 0,0 l/m 0,0 km/h W 4,9 C 7,1 C 0,0 km/h
23.12.2017 18:00 6,9 C 86 % 1032,5 hPa 0,0 l/m 0,0 km/h W 4,7 C 6,9 C 0,0 km/h
23.12.2017 19:00 6,5 C 86 % 1032,7 hPa 0,0 l/m 0,0 km/h W 4,3 C 6,5 C 0,0 km/h
23.12.2017 20:00 6,6 C 86 % 1032,4 hPa 0,0 l/m 0,0 km/h W-SW 4,4 C 6,6 C 0,0 km/h
23.12.2017 21:00 6,7 C 86 % 1032,3 hPa 0,0 l/m 21,4 km/h W-SW 4,5 C -1,5 C 11,9 km/h
23.12.2017 22:00 6,6 C 86 % 1032,1 hPa 0,0 l/m 19,4 km/h W 4,4 C -0,9 C 10,8 km/h
23.12.2017 23:00 6,4 C 86 % 1031,9 hPa 0,0 l/m 2,6 km/h SW 4,2 C 6,4 C 1,4 km/h
24.12.2017 00:00 6,3 C 86 % 1031,9 hPa 0,0 l/m 7,1 km/h S-SW 4,1 C 5,7 C 4,0 km/h
24.12.2017 01:00 6,1 C 86 % 1031,3 hPa 0,0 l/m 0,0 km/h W-SW 3,9 C 6,1 C 0,0 km/h
24.12.2017 02:00 5,9 C 86 % 1031,4 hPa 0,0 l/m 7,8 km/h SW 3,7 C 4,7 C 4,3 km/h
24.12.2017 03:00 5,8 C 86 % 1031,0 hPa 0,0 l/m 0,0 km/h SW 3,6 C 5,8 C 0,0 km/h
24.12.2017 04:00 5,5 C 86 % 1030,5 hPa 0,0 l/m 0,0 km/h W-SW 3,3 C 5,5 C 0,0 km/h
24.12.2017 05:00 5,6 C 85 % 1030,3 hPa 0,0 l/m 0,0 km/h SW 3,3 C 5,6 C 0,0 km/h
24.12.2017 06:00 5,6 C 86 % 1030,1 hPa 0,0 l/m 0,0 km/h W-SW 3,4 C 5,6 C 0,0 km/h
24.12.2017 07:00 5,6 C 86 % 1029,9 hPa 0,0 l/m 0,0 km/h W 3,4 C 5,6 C 0,0 km/h
24.12.2017 08:00 5,6 C 86 % 1029,8 hPa 0,0 l/m 0,0 km/h W-SW 3,4 C 5,6 C 0,0 km/h
24.12.2017 09:00 6,0 C 86 % 1029,6 hPa 0,0 l/m 0,0 km/h W-SW 3,8 C 6,0 C 0,0 km/h
24.12.2017 10:00 6,4 C 85 % 1029,4 hPa 0,0 l/m 4,5 km/h W 4,1 C 6,4 C 2,5 km/h
24.12.2017 11:00 6,6 C 84 % 1029,1 hPa 0,0 l/m 15,6 km/h W 4,1 C 0,7 C 8,6 km/h
24.12.2017 12:00 6,5 C 84 % 1028,2 hPa 0,0 l/m 0,0 km/h W 4,0 C 6,5 C 0,0 km/h
24.12.2017 13:00 6,4 C 84 % 1027,6 hPa 0,0 l/m 3,2 km/h SW 3,9 C 6,4 C 1,8 km/h
24.12.2017 14:00 6,2 C 84 % 1027,0 hPa 0,0 l/m 21,4 km/h S 3,7 C -2,1 C 11,9 km/h
24.12.2017 15:00 5,9 C 84 % 1026,7 hPa 0,0 l/m 0,0 km/h SW 3,4 C 5,9 C 0,0 km/h
24.12.2017 16:00 5,6 C 85 % 1026,3 hPa 0,0 l/m 0,0 km/h W 3,3 C 5,6 C 0,0 km/h
24.12.2017 17:00 5,4 C 85 % 1026,2 hPa 0,0 l/m 0,0 km/h W 3,1 C 5,4 C 0,0 km/h
24.12.2017 18:00 5,2 C 85 % 1026,3 hPa 0,0 l/m 0,0 km/h W-SW 2,9 C 5,2 C 0,0 km/h
24.12.2017 19:00 5,1 C 85 % 1026,0 hPa 0,0 l/m 0,0 km/h W 2,8 C 5,1 C 0,0 km/h
24.12.2017 20:00 4,9 C 86 % 1025,5 hPa 0,0 l/m 0,0 km/h SW 2,8 C 4,9 C 0,0 km/h
24.12.2017 21:00 4,9 C 86 % 1025,2 hPa 0,0 l/m 0,0 km/h W-SW 2,8 C 4,9 C 0,0 km/h
24.12.2017 22:00 4,7 C 86 % 1024,7 hPa 0,0 l/m 4,5 km/h N 2,6 C 4,7 C 2,5 km/h
Min-Datum _ 18.12.17 22.12.17 18.12.17 - 18.12.17 - 18.12.17 18.12.17 18.12.17
_ Min-Zeit 07:53 23:53 08:53 - 00:53 - 07:53 04:53 00:53
Minimum _ 0,1 C 67 % 1017,5 hPa - 0,0 km/h - -2,3 C -8,2 C 0,0 km/h
Max-Datum _ 23.12.17 18.12.17 21.12.17 18.12.17 23.12.17 - 23.12.17 23.12.17 23.12.17
_ Max-Zeit 12:53 00:53 10:53 13:53 21:53 - 13:53 12:53 21:53
Maximum _ 9,3 C 86 % 1034,8 hPa 0,5 l/m 21,4 km/h
W-SW
- 6,8 C 9,3 C 11,9 km/h
W-SW
Durchschnitt _ 4,2 C 79 % 1030,2 hPa #4,7 l/m 1,0 km/h O-SO 0,9 C 3,9 C 0,5 km/h
www.sexauwetter.de